Time;durP1;ratioP1;P1;durP2;ratioP2;P2;SDS_P1;SDS_P2;PMS_P1;PMS_P2;Temp;Humidity;BMP_temperature;BMP_pressure;BME280_temperature;BME280_humidity;BME280_pressure;Samples;Min_cycle;Max_cycle;Signal;HPM_P1;HPM_P2
2023/12/21 00:01:39;;;;;;;6.63;4.53;;;8.10;91.40;;;;;;5075655;28;20420;-83
2023/12/21 00:04:08;;;;;;;6.70;5.40;;;8.00;91.50;;;;;;5077661;28;20193;-82
2023/12/21 00:06:36;;;;;;;9.23;4.93;;;8.00;91.50;;;;;;5073960;28;20234;-82
2023/12/21 00:09:06;;;;;;;8.90;6.50;;;8.00;91.50;;;;;;5075517;28;20194;-86
2023/12/21 00:11:35;;;;;;;5.20;4.70;;;8.00;91.50;;;;;;5077772;28;20193;-85
2023/12/21 00:14:03;;;;;;;5.07;4.60;;;7.90;91.50;;;;;;5073440;28;20258;-85
2023/12/21 00:16:34;;;;;;;6.37;5.40;;;7.90;91.50;;;;;;5078563;28;20209;-82
2023/12/21 00:19:03;;;;;;;5.67;5.17;;;7.90;91.50;;;;;;5070369;28;20199;-84
2023/12/21 00:21:32;;;;;;;13.30;6.70;;;7.90;91.60;;;;;;5077728;28;20613;-82
2023/12/21 00:24:00;;;;;;;6.43;5.83;;;7.80;91.70;;;;;;5067292;28;20201;-84
2023/12/21 00:26:29;;;;;;;4.27;3.87;;;7.80;91.70;;;;;;5069196;28;20201;-84
2023/12/21 00:28:57;;;;;;;6.83;5.17;;;7.80;91.70;;;;;;5078360;28;20201;-84
2023/12/21 00:31:26;;;;;;;7.23;5.47;;;7.80;91.70;;;;;;5077024;28;20198;-82
2023/12/21 00:33:56;;;;;;;9.80;6.80;;;7.70;91.70;;;;;;5077886;28;20202;-83
2023/12/21 00:36:24;;;;;;;6.13;4.93;;;7.70;91.60;;;;;;5076743;28;20410;-82
2023/12/21 00:38:53;;;;;;;4.50;4.03;;;7.70;91.70;;;;;;5073107;28;20597;-81
2023/12/21 00:41:23;;;;;;;4.33;3.53;;;7.70;91.80;;;;;;5079266;28;20210;-83
2023/12/21 00:43:52;;;;;;;10.43;6.37;;;7.70;92.10;;;;;;5076560;28;20276;-82
2023/12/21 00:46:21;;;;;;;7.30;6.57;;;7.70;92.00;;;;;;5074775;28;20270;-81
2023/12/21 00:48:49;;;;;;;5.77;5.27;;;7.70;92.00;;;;;;5072691;28;20194;-82
2023/12/21 00:51:22;;;;;;;6.07;5.53;;;7.70;92.10;;;;;;5072109;28;20201;-84
2023/12/21 00:53:51;;;;;;;5.83;5.33;;;7.70;92.10;;;;;;5075769;28;20195;-83
2023/12/21 00:56:19;;;;;;;12.13;7.73;;;7.70;92.00;;;;;;5074231;28;20353;-83
2023/12/21 00:58:48;;;;;;;8.17;7.30;;;7.60;92.00;;;;;;5076129;28;20269;-84
2023/12/21 01:01:17;;;;;;;13.93;7.10;;;7.60;92.00;;;;;;5079196;28;20199;-83
2023/12/21 01:03:45;;;;;;;15.03;6.00;;;7.60;92.00;;;;;;5073934;28;20677;-86
2023/12/21 01:06:14;;;;;;;8.40;6.33;;;7.60;92.00;;;;;;5078136;28;20209;-86
2023/12/21 01:08:44;;;;;;;7.67;6.13;;;7.50;92.00;;;;;;5080056;28;20218;-86
2023/12/21 01:11:14;;;;;;;8.13;6.90;;;7.50;91.90;;;;;;5077880;28;20199;-84
2023/12/21 01:13:42;;;;;;;14.73;8.33;;;7.50;91.90;;;;;;5075059;28;20213;-85
2023/12/21 01:16:13;;;;;;;4.57;4.20;;;7.50;91.90;;;;;;5075275;28;20263;-83
2023/12/21 01:18:42;;;;;;;8.17;7.47;;;7.50;91.90;;;;;;5076879;28;20216;-84
2023/12/21 01:21:11;;;;;;;21.90;7.07;;;7.40;91.90;;;;;;5070812;28;20719;-85
2023/12/21 01:23:39;;;;;;;6.40;5.80;;;7.40;91.90;;;;;;5066646;28;20214;-85
2023/12/21 01:26:09;;;;;;;9.10;5.63;;;7.40;91.90;;;;;;5076938;28;20216;-85
2023/12/21 01:28:38;;;;;;;9.83;6.97;;;7.30;91.90;;;;;;5071055;28;20206;-84
2023/12/21 01:31:07;;;;;;;8.73;6.30;;;7.30;91.90;;;;;;5072798;28;20198;-86
2023/12/21 01:33:36;;;;;;;7.57;5.57;;;7.30;91.90;;;;;;5076038;28;20212;-86
2023/12/21 01:36:08;;;;;;;9.93;7.63;;;7.30;91.90;;;;;;5076241;28;20191;-86
2023/12/21 01:38:37;;;;;;;10.43;7.93;;;7.30;91.90;;;;;;5081873;28;20694;-84
2023/12/21 01:41:06;;;;;;;9.07;5.97;;;7.30;91.90;;;;;;5081628;28;20198;-87
2023/12/21 01:43:36;;;;;;;6.57;5.13;;;7.20;91.90;;;;;;5073409;28;20287;-85
2023/12/21 01:46:05;;;;;;;10.13;5.57;;;7.30;92.00;;;;;;5076871;28;20696;-85
2023/12/21 01:48:33;;;;;;;9.43;5.93;;;7.30;92.00;;;;;;5071551;28;20230;-84
2023/12/21 01:51:04;;;;;;;6.40;5.33;;;7.30;91.90;;;;;;5077053;28;20595;-86
2023/12/21 01:53:34;;;;;;;11.33;7.43;;;7.30;91.90;;;;;;5081056;28;20233;-85
2023/12/21 01:56:04;;;;;;;8.43;7.00;;;7.30;91.90;;;;;;5078148;28;20190;-85
2023/12/21 01:58:33;;;;;;;7.17;5.50;;;7.30;91.90;;;;;;5078747;28;20315;-85
2023/12/21 02:01:06;;;;;;;6.23;5.63;;;7.20;91.90;;;;;;5081321;28;20210;-88
2023/12/21 02:03:34;;;;;;;11.37;4.87;;;7.20;91.90;;;;;;5080901;28;20245;-86
2023/12/21 02:06:03;;;;;;;7.43;6.07;;;7.20;92.00;;;;;;5075192;28;20224;-85
2023/12/21 02:08:32;;;;;;;12.27;8.70;;;7.20;91.90;;;;;;5073708;28;20718;-87
2023/12/21 02:11:01;;;;;;;11.00;7.43;;;7.20;91.90;;;;;;5076864;28;20216;-85
2023/12/21 02:13:29;;;;;;;7.53;6.70;;;7.20;91.90;;;;;;5076050;28;20247;-87
2023/12/21 02:16:03;;;;;;;7.97;6.77;;;7.20;91.80;;;;;;5075037;28;20202;-87
2023/12/21 02:18:34;;;;;;;9.53;6.17;;;7.20;91.80;;;;;;5075574;28;20267;-85
2023/12/21 02:21:03;;;;;;;26.53;8.00;;;7.10;91.80;;;;;;5067747;28;20196;-86
2023/12/21 02:23:39;;;;;;;13.63;6.13;;;7.10;91.80;;;;;;5081870;28;20240;-86
2023/12/21 02:26:10;;;;;;;7.43;5.10;;;7.10;91.80;;;;;;5072070;28;20198;-87
2023/12/21 02:28:39;;;;;;;13.67;8.03;;;7.10;91.80;;;;;;5074294;28;20201;-88
2023/12/21 02:31:08;;;;;;;12.70;6.57;;;7.10;91.80;;;;;;5075856;28;20197;-86
2023/12/21 02:33:36;;;;;;;7.43;6.73;;;7.10;91.80;;;;;;5074844;28;20194;-86
2023/12/21 02:36:07;;;;;;;7.73;6.80;;;7.10;91.80;;;;;;5072511;28;20298;-87
2023/12/21 02:38:37;;;;;;;9.30;7.73;;;7.10;91.80;;;;;;5083290;28;20692;-84
2023/12/21 02:41:05;;;;;;;10.68;8.23;;;7.10;91.70;;;;;;5078853;28;20427;-81
2023/12/21 02:43:35;;;;;;;7.53;5.13;;;7.10;91.80;;;;;;5074490;28;20593;-82
2023/12/21 02:46:04;;;;;;;9.67;6.70;;;7.10;91.80;;;;;;5079126;28;20202;-82
2023/12/21 02:48:33;;;;;;;4.77;4.33;;;7.10;91.80;;;;;;5073680;28;20202;-82
2023/12/21 02:51:02;;;;;;;6.23;4.63;;;7.10;91.70;;;;;;5070031;28;20194;-82
2023/12/21 02:53:30;;;;;;;7.07;6.37;;;7.10;91.60;;;;;;5083668;28;20549;-82
2023/12/21 02:55:58;;;;;;;6.40;5.70;;;7.10;91.60;;;;;;5080432;28;20209;-82
2023/12/21 02:58:27;;;;;;;5.73;4.20;;;7.20;91.60;;;;;;5074085;28;20284;-82
2023/12/21 03:00:57;;;;;;;8.63;3.57;;;7.20;91.60;;;;;;5079748;28;20665;-81
2023/12/21 03:03:26;;;;;;;9.70;6.43;;;7.30;91.60;;;;;;5076006;28;20203;-82
2023/12/21 03:05:55;;;;;;;8.67;6.87;;;7.30;91.50;;;;;;5077619;28;20266;-82
2023/12/21 03:08:24;;;;;;;8.30;6.07;;;7.30;91.30;;;;;;5078386;28;20202;-82
2023/12/21 03:10:53;;;;;;;5.87;4.70;;;7.30;91.20;;;;;;5085779;28;20204;-82
2023/12/21 03:13:21;;;;;;;13.53;9.00;;;7.30;91.20;;;;;;5082227;28;20297;-82
2023/12/21 03:15:50;;;;;;;5.83;5.33;;;7.30;91.50;;;;;;5075628;28;20213;-81
2023/12/21 03:18:20;;;;;;;13.93;5.43;;;7.20;91.00;;;;;;5075622;28;20289;-83
2023/12/21 03:20:49;;;;;;;9.17;7.20;;;7.20;91.00;;;;;;5074208;28;20756;-82
2023/12/21 03:23:18;;;;;;;6.33;4.87;;;7.20;91.00;;;;;;5076934;28;20705;-83
2023/12/21 03:25:46;;;;;;;4.97;4.40;;;7.20;91.00;;;;;;5074220;28;20191;-82
2023/12/21 03:28:15;;;;;;;12.93;5.40;;;7.20;91.00;;;;;;5074648;28;20614;-83
2023/12/21 03:30:45;;;;;;;8.43;6.13;;;7.20;91.10;;;;;;5078450;28;20253;-83
2023/12/21 03:33:14;;;;;;;14.83;5.40;;;7.20;91.10;;;;;;5079508;28;20243;-82
2023/12/21 03:35:44;;;;;;;7.27;4.63;;;7.20;91.10;;;;;;5076669;28;20665;-81
2023/12/21 03:38:13;;;;;;;11.90;6.67;;;7.30;91.10;;;;;;5078047;28;20234;-81
2023/12/21 03:40:49;;;;;;;8.93;4.90;;;7.30;91.10;;;;;;5080865;28;20222;-81
2023/12/21 03:43:18;;;;;;;10.37;6.47;;;7.30;91.00;;;;;;5081275;28;20208;-83
2023/12/21 03:45:47;;;;;;;5.90;5.40;;;7.20;90.90;;;;;;5074255;28;20202;-81
2023/12/21 03:48:15;;;;;;;7.67;6.27;;;7.20;91.00;;;;;;5076145;28;20197;-80
2023/12/21 03:50:45;;;;;;;10.50;6.13;;;7.20;91.10;;;;;;5071082;28;20205;-81
2023/12/21 03:53:16;;;;;;;6.20;5.13;;;7.20;91.10;;;;;;5079162;28;20195;-81
2023/12/21 03:55:45;;;;;;;9.47;5.73;;;7.30;91.10;;;;;;5073557;28;20670;-82
2023/12/21 03:58:13;;;;;;;15.73;8.63;;;7.20;91.10;;;;;;5083731;28;20199;-82
2023/12/21 04:00:42;;;;;;;10.23;9.13;;;7.20;91.20;;;;;;5070991;28;20314;-82
2023/12/21 04:03:11;;;;;;;17.33;8.50;;;7.30;91.30;;;;;;5077526;28;20793;-82
2023/12/21 04:05:40;;;;;;;6.80;6.17;;;7.30;91.30;;;;;;5082337;28;20194;-83
2023/12/21 04:08:10;;;;;;;4.83;4.43;;;7.40;91.40;;;;;;5075316;28;20227;-83
2023/12/21 04:10:39;;;;;;;10.67;6.17;;;7.40;91.30;;;;;;5085055;28;20686;-81
2023/12/21 04:13:08;;;;;;;10.03;4.40;;;7.50;91.40;;;;;;5072911;28;20210;-83
2023/12/21 04:15:37;;;;;;;4.27;3.43;;;7.50;91.40;;;;;;5082624;28;20202;-82
2023/12/21 04:18:07;;;;;;;5.83;3.63;;;7.50;91.40;;;;;;5069408;28;20283;-81
2023/12/21 04:20:36;;;;;;;7.00;5.60;;;7.60;91.40;;;;;;5075194;28;20290;-82
2023/12/21 04:23:05;;;;;;;7.10;6.10;;;7.60;91.30;;;;;;5078053;28;20211;-82
2023/12/21 04:25:35;;;;;;;7.30;3.40;;;7.60;91.30;;;;;;5075161;28;20198;-82
2023/12/21 04:28:04;;;;;;;6.47;3.93;;;7.70;91.30;;;;;;5070684;28;20287;-81
2023/12/21 04:30:32;;;;;;;6.50;5.30;;;7.70;91.20;;;;;;5070000;28;20190;-81
2023/12/21 04:33:01;;;;;;;9.83;4.43;;;7.70;91.30;;;;;;5070308;28;21095;-82
2023/12/21 04:35:30;;;;;;;3.77;3.43;;;7.70;91.20;;;;;;5079728;28;20194;-82
2023/12/21 04:37:59;;;;;;;5.07;4.67;;;7.70;91.10;;;;;;5073765;28;20210;-81
2023/12/21 04:40:28;;;;;;;13.97;6.53;;;7.70;91.00;;;;;;5066845;28;20230;-82
2023/12/21 04:42:58;;;;;;;6.97;6.30;;;7.70;91.10;;;;;;5070120;28;20198;-82
2023/12/21 04:45:27;;;;;;;8.30;7.33;;;7.70;91.10;;;;;;5058030;28;20194;-81
2023/12/21 04:47:56;;;;;;;5.93;5.43;;;7.70;91.10;;;;;;5068289;28;20199;-82
2023/12/21 04:50:24;;;;;;;5.80;5.20;;;7.70;91.20;;;;;;5070825;28;20243;-86
2023/12/21 04:52:53;;;;;;;6.27;4.87;;;7.70;91.10;;;;;;5072368;28;20197;-85
2023/12/21 04:55:22;;;;;;;11.10;5.10;;;7.70;91.20;;;;;;5072165;28;20654;-83
2023/12/21 04:57:54;;;;;;;8.93;6.30;;;7.70;91.20;;;;;;5077258;28;20202;-83
2023/12/21 05:00:24;;;;;;;10.60;6.43;;;7.70;91.20;;;;;;5078055;28;20236;-82
2023/12/21 05:02:52;;;;;;;9.47;3.63;;;7.70;91.20;;;;;;5072938;28;20201;-82
2023/12/21 05:05:21;;;;;;;4.77;4.33;;;7.70;91.20;;;;;;5075283;28;20202;-83
2023/12/21 05:07:50;;;;;;;11.37;7.17;;;7.70;91.20;;;;;;5070171;28;20202;-81
2023/12/21 05:10:18;;;;;;;5.73;4.33;;;7.70;91.20;;;;;;5067067;28;20568;-82
2023/12/21 05:12:47;;;;;;;6.20;4.03;;;7.70;91.20;;;;;;5067252;28;20232;-81
2023/12/21 05:15:16;;;;;;;7.07;5.03;;;7.80;91.20;;;;;;5071737;28;20509;-83
2023/12/21 05:17:46;;;;;;;13.90;4.10;;;7.70;91.30;;;;;;5071283;28;20426;-84
2023/12/21 05:20:15;;;;;;;11.40;5.50;;;7.80;91.30;;;;;;5074079;28;20237;-85
2023/12/21 05:22:46;;;;;;;8.70;4.63;;;7.80;91.30;;;;;;5070479;28;20198;-87
2023/12/21 05:25:16;;;;;;;6.53;5.20;;;7.80;91.20;;;;;;5067515;28;20197;-82
2023/12/21 05:27:46;;;;;;;7.93;6.63;;;7.80;91.20;;;;;;5078823;28;20652;-83
2023/12/21 05:30:19;;;;;;;5.37;4.87;;;7.80;91.20;;;;;;5074584;28;20657;-83
2023/12/21 05:32:51;;;;;;;6.33;4.53;;;7.80;91.20;;;;;;5075503;28;20293;-81
2023/12/21 05:35:20;;;;;;;4.03;3.70;;;7.80;91.20;;;;;;5073606;28;20285;-82
2023/12/21 05:37:50;;;;;;;6.50;5.70;;;7.80;91.10;;;;;;5074506;28;20289;-83
2023/12/21 05:40:19;;;;;;;9.40;6.50;;;7.80;91.10;;;;;;5070282;28;20276;-83
2023/12/21 05:42:48;;;;;;;7.97;7.00;;;7.80;91.00;;;;;;5067891;28;20629;-81
2023/12/21 05:45:18;;;;;;;8.67;4.17;;;7.80;91.00;;;;;;5080709;28;20194;-84
2023/12/21 05:47:46;;;;;;;14.30;4.97;;;7.80;91.00;;;;;;5078726;28;20281;-82
2023/12/21 05:50:18;;;;;;;5.80;5.30;;;7.80;90.90;;;;;;5068822;28;20190;-85
2023/12/21 05:52:47;;;;;;;3.90;3.60;;;7.80;90.90;;;;;;5072558;28;20203;-84
2023/12/21 05:55:16;;;;;;;6.70;5.57;;;7.70;90.80;;;;;;5071060;28;20240;-88
2023/12/21 05:57:45;;;;;;;11.87;6.87;;;7.80;90.80;;;;;;5072092;28;20237;-87
2023/12/21 06:00:15;;;;;;;6.87;4.80;;;7.70;90.70;;;;;;5075141;28;20248;-85
2023/12/21 06:02:43;;;;;;;5.77;5.23;;;7.70;90.70;;;;;;5084092;28;20213;-84
2023/12/21 06:05:12;;;;;;;4.57;4.17;;;7.70;90.70;;;;;;5067831;28;20206;-83
2023/12/21 06:07:42;;;;;;;8.00;4.53;;;7.70;90.70;;;;;;5077634;28;20206;-85
2023/12/21 06:10:11;;;;;;;6.73;5.20;;;7.70;90.60;;;;;;5074064;28;20203;-85
2023/12/21 06:12:40;;;;;;;8.20;5.20;;;7.70;90.60;;;;;;5073654;28;20197;-85
2023/12/21 06:15:09;;;;;;;8.70;4.40;;;7.60;90.60;;;;;;5069088;28;20195;-86
2023/12/21 06:17:37;;;;;;;6.93;3.27;;;7.60;90.60;;;;;;5076229;28;20205;-87
2023/12/21 06:20:07;;;;;;;8.97;5.53;;;7.60;90.60;;;;;;5066170;28;20195;-87
2023/12/21 06:22:36;;;;;;;7.07;5.20;;;7.60;90.60;;;;;;5083752;28;20197;-86
2023/12/21 06:25:07;;;;;;;7.03;5.33;;;7.60;90.60;;;;;;5074605;28;20191;-87
2023/12/21 06:27:36;;;;;;;14.17;5.70;;;7.60;90.60;;;;;;5078671;28;20246;-85
2023/12/21 06:30:05;;;;;;;6.93;5.23;;;7.60;90.60;;;;;;5078141;28;20201;-84
2023/12/21 06:32:34;;;;;;;7.53;5.97;;;7.60;90.60;;;;;;5075542;28;20226;-85
2023/12/21 06:35:03;;;;;;;5.40;2.83;;;7.70;90.60;;;;;;5078851;28;20705;-85
2023/12/21 06:37:32;;;;;;;12.83;6.00;;;7.70;90.60;;;;;;5076671;28;20273;-87
2023/12/21 06:40:04;;;;;;;9.63;6.93;;;7.70;90.60;;;;;;5076314;28;20198;-87
2023/12/21 06:42:34;;;;;;;9.93;6.67;;;7.70;90.60;;;;;;5079074;28;20202;-86
2023/12/21 06:45:03;;;;;;;9.63;6.77;;;7.70;90.60;;;;;;5071507;28;20225;-87
2023/12/21 06:47:31;;;;;;;4.43;3.90;;;7.70;90.60;;;;;;5075919;28;20210;-87
2023/12/21 06:50:00;;;;;;;12.50;7.37;;;7.70;90.60;;;;;;5086736;28;20204;-87
2023/12/21 06:52:30;;;;;;;9.83;4.67;;;7.70;91.00;;;;;;5091591;28;20193;-87
2023/12/21 06:54:58;;;;;;;6.67;6.07;;;7.70;90.60;;;;;;5077134;28;20195;-85
2023/12/21 06:57:28;;;;;;;6.20;3.57;;;7.70;90.60;;;;;;5089107;28;20226;-87
2023/12/21 06:59:58;;;;;;;4.63;4.23;;;7.70;90.60;;;;;;5076499;28;20237;-86
2023/12/21 07:02:27;;;;;;;9.37;5.70;;;7.80;90.60;;;;;;5074606;28;20250;-86
2023/12/21 07:04:57;;;;;;;5.67;5.17;;;7.80;90.70;;;;;;5076670;28;20610;-87
2023/12/21 07:07:26;;;;;;;5.57;4.33;;;7.80;90.70;;;;;;5070731;28;20396;-87
2023/12/21 07:09:54;;;;;;;10.13;5.37;;;7.80;90.60;;;;;;5081052;28;20242;-84
2023/12/21 07:12:24;;;;;;;15.83;7.90;;;7.80;90.60;;;;;;5073708;28;20302;-84
2023/12/21 07:14:53;;;;;;;8.30;4.97;;;7.70;90.60;;;;;;5070919;28;20672;-85
2023/12/21 07:17:23;;;;;;;4.17;3.73;;;7.80;90.70;;;;;;5075188;28;20312;-85
2023/12/21 07:19:54;;;;;;;6.67;6.00;;;7.80;90.70;;;;;;5064775;28;20199;-85
2023/12/21 07:22:23;;;;;;;4.63;4.33;;;7.80;90.80;;;;;;5090437;28;20213;-86
2023/12/21 07:24:52;;;;;;;5.67;5.07;;;7.80;90.80;;;;;;5074031;28;20646;-85
2023/12/21 07:27:21;;;;;;;11.43;7.37;;;7.90;90.80;;;;;;5089040;28;20212;-85
2023/12/21 07:29:50;;;;;;;8.50;7.60;;;7.80;90.80;;;;;;5078312;28;20198;-85
2023/12/21 07:32:19;;;;;;;5.57;4.23;;;7.90;90.90;;;;;;5079621;28;20202;-85
2023/12/21 07:34:49;;;;;;;10.67;6.80;;;7.90;90.90;;;;;;5084500;28;20201;-84
2023/12/21 07:37:17;;;;;;;8.70;7.23;;;7.90;90.90;;;;;;5076340;28;20187;-84
2023/12/21 07:39:46;;;;;;;7.70;4.57;;;8.00;90.90;;;;;;5070116;28;20198;-84
2023/12/21 07:42:16;;;;;;;6.23;5.17;;;8.00;91.00;;;;;;5068906;28;20214;-83
2023/12/21 07:44:45;;;;;;;7.27;5.27;;;8.10;90.90;;;;;;5077245;28;20198;-84
2023/12/21 07:47:15;;;;;;;8.67;6.97;;;8.10;90.80;;;;;;5074399;28;20206;-85
2023/12/21 07:49:44;;;;;;;7.43;6.37;;;8.10;90.70;;;;;;5082085;28;20216;-84
2023/12/21 07:52:14;;;;;;;7.97;4.47;;;8.20;90.80;;;;;;5075924;28;20206;-85
2023/12/21 07:54:43;;;;;;;6.43;5.17;;;8.20;90.80;;;;;;5075881;28;20207;-85
2023/12/21 07:57:12;;;;;;;5.83;5.20;;;8.40;90.90;;;;;;5069961;28;20199;-85
2023/12/21 07:59:41;;;;;;;9.03;4.87;;;8.40;91.20;;;;;;5066855;28;20317;-84
2023/12/21 08:02:12;;;;;;;5.53;4.83;;;8.50;90.90;;;;;;5068139;28;20564;-83
2023/12/21 08:04:41;;;;;;;7.87;4.37;;;8.50;90.80;;;;;;5076741;28;20567;-85
2023/12/21 08:07:10;;;;;;;11.17;5.73;;;8.60;90.80;;;;;;5073533;28;20210;-86
2023/12/21 08:09:40;;;;;;;9.17;5.93;;;8.70;90.70;;;;;;5071987;28;20285;-84
2023/12/21 08:12:13;;;;;;;4.73;4.17;;;8.70;90.60;;;;;;5074663;28;20198;-85
2023/12/21 08:14:41;;;;;;;6.80;4.60;;;8.80;90.70;;;;;;5063947;28;20704;-85
2023/12/21 08:17:10;;;;;;;13.20;6.60;;;8.90;90.70;;;;;;5072732;28;20610;-85
2023/12/21 08:19:39;;;;;;;11.47;5.77;;;8.90;90.40;;;;;;5067124;28;20281;-86
2023/12/21 08:22:09;;;;;;;9.47;5.57;;;8.90;90.20;;;;;;5070479;28;20294;-85
2023/12/21 08:24:40;;;;;;;5.43;4.93;;;9.00;90.10;;;;;;5074864;28;20255;-85
2023/12/21 08:27:08;;;;;;;5.73;5.10;;;9.10;90.20;;;;;;5077163;28;20204;-86
2023/12/21 08:29:37;;;;;;;5.17;2.90;;;9.10;90.20;;;;;;5071987;28;20206;-87
2023/12/21 08:32:06;;;;;;;20.53;4.10;;;9.20;90.30;;;;;;5073504;28;20276;-87
2023/12/21 08:34:34;;;;;;;8.73;6.10;;;9.30;90.30;;;;;;5071015;28;20210;-86
2023/12/21 08:37:03;;;;;;;18.13;6.03;;;9.40;90.20;;;;;;5071573;28;20657;-86
2023/12/21 08:39:32;;;;;;;17.67;6.50;;;9.50;90.10;;;;;;5073479;28;20225;-85
2023/12/21 08:42:02;;;;;;;11.77;6.57;;;9.60;90.20;;;;;;5068914;28;20219;-87
2023/12/21 08:44:31;;;;;;;8.17;5.77;;;9.60;89.40;;;;;;5070542;28;20210;-87
2023/12/21 08:47:02;;;;;;;9.67;5.40;;;9.70;89.30;;;;;;5070110;28;20301;-88
2023/12/21 08:49:30;;;;;;;3.93;3.63;;;9.70;89.10;;;;;;5075140;28;20204;-89
2023/12/21 08:51:59;;;;;;;4.83;2.43;;;9.80;89.00;;;;;;5077669;28;20665;-89
2023/12/21 08:54:28;;;;;;;5.87;3.63;;;9.80;89.00;;;;;;5080046;28;20215;-88
2023/12/21 08:56:57;;;;;;;5.07;4.57;;;9.90;89.10;;;;;;5072737;28;20672;-89
2023/12/21 08:59:27;;;;;;;7.73;3.27;;;9.90;89.00;;;;;;5075413;28;20704;-87
2023/12/21 09:01:56;;;;;;;12.73;5.03;;;10.00;88.90;;;;;;5074618;28;20635;-90
2023/12/21 09:04:24;;;;;;;5.97;4.03;;;10.00;88.50;;;;;;5073174;28;20248;-89
2023/12/21 09:06:53;;;;;;;9.23;3.63;;;10.10;88.30;;;;;;5076504;28;20572;-92
2023/12/21 09:09:22;;;;;;;8.73;5.00;;;10.20;88.00;;;;;;5078009;28;20247;-89
2023/12/21 09:11:50;;;;;;;7.30;4.87;;;10.30;88.10;;;;;;5070383;28;20199;-88
2023/12/21 09:14:19;;;;;;;6.33;3.53;;;10.40;87.30;;;;;;5081661;28;20198;-87
2023/12/21 09:16:51;;;;;;;9.20;4.10;;;10.40;87.50;;;;;;5068523;28;20559;-86
2023/12/21 09:19:20;;;;;;;4.77;3.80;;;10.40;87.20;;;;;;5065182;28;20645;-87
2023/12/21 09:21:48;;;;;;;7.23;5.27;;;10.50;86.60;;;;;;5070181;28;20214;-86
2023/12/21 09:24:17;;;;;;;3.33;3.00;;;10.50;86.00;;;;;;5070372;28;20210;-88
2023/12/21 09:26:46;;;;;;;4.43;2.83;;;10.50;86.40;;;;;;5079916;28;20210;-88
2023/12/21 09:29:14;;;;;;;4.73;3.60;;;10.60;86.60;;;;;;5068309;28;20266;-90
2023/12/21 09:31:43;;;;;;;6.77;3.33;;;10.60;86.10;;;;;;5074351;28;20263;-87
2023/12/21 09:34:13;;;;;;;2.53;2.33;;;10.70;85.70;;;;;;5069336;28;20198;-89
2023/12/21 09:36:42;;;;;;;1.60;1.50;;;10.80;85.80;;;;;;5069195;28;20198;-90
2023/12/21 09:39:12;;;;;;;5.53;2.63;;;10.90;84.90;;;;;;5078395;28;20197;-89
2023/12/21 09:41:41;;;;;;;1.97;1.87;;;11.00;85.30;;;;;;5075172;28;20205;-89
2023/12/21 09:44:25;;;;;;;5.53;1.77;;;11.10;84.80;;;;;;5073391;28;20225;-88
2023/12/21 09:46:58;;;;;;;5.77;2.07;;;11.30;84.70;;;;;;5071623;28;20206;-88
2023/12/21 09:49:36;;;;;;;2.23;1.80;;;11.30;84.40;;;;;;5074118;28;20240;-87
2023/12/21 09:52:08;;;;;;;3.07;2.20;;;11.40;84.00;;;;;;5081777;28;20266;-89
2023/12/21 09:54:39;;;;;;;1.63;1.27;;;11.50;83.50;;;;;;5076015;28;20201;-88
2023/12/21 09:57:09;;;;;;;2.93;2.23;;;11.60;82.60;;;;;;5073393;28;20210;-88
2023/12/21 09:59:37;;;;;;;2.77;1.97;;;11.70;81.30;;;;;;5085451;28;20218;-88
2023/12/21 10:02:11;;;;;;;3.40;2.27;;;11.80;81.00;;;;;;5082414;28;20202;-92
2023/12/21 10:04:45;;;;;;;2.17;1.97;;;11.90;80.70;;;;;;5076229;28;20228;-89
2023/12/21 10:07:14;;;;;;;2.47;2.27;;;11.90;81.40;;;;;;5086939;28;20334;-89
2023/12/21 10:09:44;;;;;;;1.97;1.53;;;12.00;81.10;;;;;;5087988;28;20564;-85
2023/12/21 10:12:13;;;;;;;4.87;1.23;;;12.10;79.20;;;;;;5082710;28;20263;-86
2023/12/21 10:14:43;;;;;;;6.80;2.60;;;12.20;80.40;;;;;;5077780;28;20199;-87
2023/12/21 10:17:12;;;;;;;3.73;2.17;;;12.30;79.90;;;;;;5085473;28;20237;-86
2023/12/21 10:19:46;;;;;;;1.90;1.80;;;12.30;79.40;;;;;;5080787;28;20205;-87
2023/12/21 10:22:16;;;;;;;6.30;4.27;;;12.40;79.90;;;;;;5078993;28;20197;-87
2023/12/21 10:24:46;;;;;;;3.83;2.23;;;12.50;78.20;;;;;;5076847;28;20728;-87
2023/12/21 10:27:15;;;;;;;4.63;2.13;;;12.60;78.80;;;;;;5078696;28;20194;-87
2023/12/21 10:29:51;;;;;;;2.03;1.83;;;12.60;78.40;;;;;;5085035;28;20202;-87
2023/12/21 10:32:20;;;;;;;4.40;2.97;;;12.70;76.90;;;;;;5078280;28;20566;-87
2023/12/21 10:34:50;;;;;;;2.20;1.70;;;12.70;75.40;;;;;;5079902;28;20202;-87
2023/12/21 10:37:20;;;;;;;1.73;1.63;;;12.80;76.30;;;;;;5075937;28;20198;-87
2023/12/21 10:39:48;;;;;;;1.20;1.10;;;12.80;76.50;;;;;;5085912;28;20199;-92
2023/12/21 10:42:19;;;;;;;4.47;2.67;;;12.90;76.10;;;;;;5081036;28;20198;-89
2023/12/21 10:44:50;;;;;;;2.20;1.47;;;12.90;75.50;;;;;;5080353;28;20297;-89
2023/12/21 10:47:21;;;;;;;3.10;1.00;;;12.90;75.40;;;;;;5079381;28;20279;-87
2023/12/21 10:49:51;;;;;;;2.27;2.07;;;13.00;73.90;;;;;;5088933;28;20251;-88
2023/12/21 10:52:23;;;;;;;10.87;2.47;;;13.00;72.70;;;;;;5081087;28;20198;-89
2023/12/21 10:54:53;;;;;;;2.40;1.63;;;13.00;72.70;;;;;;5077000;28;20220;-88
2023/12/21 10:57:22;;;;;;;1.17;1.07;;;13.10;73.80;;;;;;5078100;28;20703;-87
2023/12/21 10:59:52;;;;;;;2.10;1.90;;;13.10;73.70;;;;;;5076506;28;20990;-86
2023/12/21 11:02:22;;;;;;;9.27;3.87;;;13.10;73.10;;;;;;5068719;28;20216;-90
2023/12/21 11:04:52;;;;;;;2.50;2.30;;;13.10;72.80;;;;;;5066600;28;20207;-88
2023/12/21 11:07:25;;;;;;;7.83;1.77;;;13.10;72.90;;;;;;5073400;28;20190;-86
2023/12/21 11:09:54;;;;;;;2.17;1.97;;;13.10;72.70;;;;;;5075033;28;20202;-84
2023/12/21 11:12:23;;;;;;;1.63;1.53;;;13.10;72.40;;;;;;5076605;28;20248;-88
2023/12/21 11:14:52;;;;;;;2.13;1.93;;;13.10;72.90;;;;;;5073460;28;20501;-89
2023/12/21 11:17:21;;;;;;;1.67;1.53;;;13.10;73.60;;;;;;5079837;28;20673;-88
2023/12/21 11:19:51;;;;;;;3.20;1.97;;;13.10;73.20;;;;;;5084278;28;20194;-89
2023/12/21 11:22:21;;;;;;;2.83;2.47;;;13.10;72.80;;;;;;5077362;28;20257;-87
2023/12/21 11:24:51;;;;;;;4.97;1.53;;;13.20;72.00;;;;;;5077713;28;20653;-91
2023/12/21 11:27:19;;;;;;;1.27;1.17;;;13.20;72.30;;;;;;5076733;28;20281;-90
2023/12/21 11:29:48;;;;;;;3.60;2.03;;;13.20;70.70;;;;;;5075101;28;20213;-90
2023/12/21 11:32:24;;;;;;;4.77;2.27;;;13.20;70.60;;;;;;5075092;28;20202;-85
2023/12/21 11:34:53;;;;;;;5.87;2.47;;;13.30;70.90;;;;;;5080297;28;20576;-87
2023/12/21 11:37:27;;;;;;;4.10;2.40;;;13.30;70.70;;;;;;5081990;28;20202;-84
2023/12/21 11:39:58;;;;;;;1.23;1.13;;;13.30;70.90;;;;;;5077736;28;20535;-84
2023/12/21 11:42:34;;;;;;;2.70;1.63;;;13.40;71.30;;;;;;5075621;28;20194;-82
2023/12/21 11:45:04;;;;;;;3.93;3.00;;;13.50;71.60;;;;;;5077724;28;20217;-85
2023/12/21 11:47:33;;;;;;;2.93;1.87;;;13.50;71.30;;;;;;5073111;28;20229;-87
2023/12/21 11:50:06;;;;;;;5.70;2.07;;;13.60;70.80;;;;;;5075722;28;20210;-87
2023/12/21 11:52:36;;;;;;;3.17;2.37;;;13.60;70.70;;;;;;5074616;28;20269;-87
2023/12/21 11:55:06;;;;;;;4.50;1.60;;;13.70;71.10;;;;;;5079610;28;20608;-86
2023/12/21 11:57:41;;;;;;;1.60;1.37;;;13.80;70.50;;;;;;5072439;28;20572;-87
2023/12/21 12:00:15;;;;;;;1.50;1.37;;;13.80;70.00;;;;;;5065143;28;20655;-87
2023/12/21 12:02:46;;;;;;;7.60;2.93;;;13.80;69.80;;;;;;5082693;28;20296;-86
2023/12/21 12:05:22;;;;;;;1.73;1.37;;;13.80;69.20;;;;;;5085999;28;20561;-88
2023/12/21 12:07:55;;;;;;;2.50;1.80;;;13.80;69.50;;;;;;5076608;28;20199;-84
2023/12/21 12:10:23;;;;;;;4.67;2.43;;;13.80;69.50;;;;;;5070416;28;20198;-84
2023/12/21 12:12:54;;;;;;;1.83;1.57;;;13.90;69.20;;;;;;5077081;28;20232;-84
2023/12/21 12:15:23;;;;;;;2.40;1.53;;;13.80;68.30;;;;;;5073343;28;20234;-83
2023/12/21 12:17:51;;;;;;;0.47;0.47;;;13.70;67.30;;;;;;5083853;28;20199;-80
2023/12/21 12:20:20;;;;;;;4.83;3.33;;;13.70;67.60;;;;;;5070553;28;20199;-80
2023/12/21 12:22:53;;;;;;;3.13;1.90;;;13.60;68.40;;;;;;5072705;28;20199;-82
2023/12/21 12:25:23;;;;;;;0.77;0.77;;;13.60;69.10;;;;;;5072340;28;20662;-81
2023/12/21 12:27:53;;;;;;;1.37;1.07;;;13.60;69.60;;;;;;5075028;28;20206;-81
2023/12/21 12:30:23;;;;;;;1.83;1.60;;;13.50;69.60;;;;;;5067914;28;20562;-81
2023/12/21 12:32:52;;;;;;;1.07;0.70;;;13.50;68.10;;;;;;5076655;28;20208;-82
2023/12/21 12:35:24;;;;;;;2.20;1.07;;;13.50;68.30;;;;;;5075063;28;20204;-82
2023/12/21 12:37:54;;;;;;;1.67;1.33;;;13.50;68.80;;;;;;5077267;28;20212;-84
2023/12/21 12:40:23;;;;;;;2.70;1.63;;;13.50;68.70;;;;;;5076561;28;20263;-84
2023/12/21 12:42:54;;;;;;;1.50;1.40;;;13.50;67.80;;;;;;5086553;28;20206;-88
2023/12/21 12:45:25;;;;;;;3.17;1.67;;;13.50;67.70;;;;;;5074009;28;20218;-84
2023/12/21 12:47:53;;;;;;;0.73;0.73;;;13.50;67.80;;;;;;5072931;28;20202;-85
2023/12/21 12:50:23;;;;;;;1.50;1.17;;;13.60;67.40;;;;;;5073359;28;20280;-87
2023/12/21 12:52:56;;;;;;;1.23;1.13;;;13.60;67.80;;;;;;5071940;28;20202;-85
2023/12/21 12:55:25;;;;;;;1.23;1.13;;;13.70;68.60;;;;;;5074624;28;20642;-83
2023/12/21 12:57:55;;;;;;;3.17;1.73;;;13.80;69.50;;;;;;5074289;28;20342;-82
2023/12/21 13:00:24;;;;;;;1.33;1.23;;;13.90;70.80;;;;;;5079209;28;20584;-83
2023/12/21 13:02:53;;;;;;;3.63;2.43;;;14.00;71.10;;;;;;5071529;28;20740;-83
2023/12/21 13:05:22;;;;;;;1.43;1.23;;;14.20;69.50;;;;;;5078825;28;20676;-83